Time;durP1;ratioP1;P1;durP2;ratioP2;P2;SDS_P1;SDS_P2;PMS_P1;PMS_P2;Temp;Humidity;BMP_temperature;BMP_pressure;BME280_temperature;BME280_humidity;BME280_pressure;Samples;Min_cycle;Max_cycle;Signal;HPM_P1;HPM_P2
2022/06/06 00:01:38;;;;;;;;;;;17.60;86.20;;;;;;5054234;28;19920;-88
2022/06/06 00:04:04;;;;;;;;;;;17.60;86.30;;;;;;5052198;28;20015;-88
2022/06/06 00:06:29;;;;;;;;;;;17.60;86.00;;;;;;5057201;28;19950;-86
2022/06/06 00:08:55;;;;;;;;;;;17.50;85.90;;;;;;5070556;28;19931;-87
2022/06/06 00:11:20;;;;;;;;;;;17.60;86.10;;;;;;5052656;28;19915;-88
2022/06/06 00:13:47;;;;;;;;;;;17.60;85.80;;;;;;5060814;28;21720;-87
2022/06/06 00:16:12;;;;;;;;;;;17.60;85.80;;;;;;5090967;28;20003;-87
2022/06/06 00:18:38;;;;;;;;;;;17.50;85.60;;;;;;5072557;28;19944;-88
2022/06/06 00:21:05;;;;;;;;;;;17.50;85.40;;;;;;5072691;28;20000;-88
2022/06/06 00:23:30;;;;;;;;;;;17.50;85.70;;;;;;5079583;28;19908;-88
2022/06/06 00:25:57;;;;;;;;;;;17.40;85.40;;;;;;5056340;28;20418;-88
2022/06/06 00:28:22;;;;;;;;;;;17.30;85.30;;;;;;5056248;28;20279;-87
2022/06/06 00:30:48;;;;;;;;;;;17.30;85.30;;;;;;5054700;28;19916;-86
2022/06/06 00:36:01;;;;;;;;;;;17.20;85.10;;;;;;5074337;28;20338;-87
2022/06/06 00:38:26;;;;;;;;;;;17.20;85.00;;;;;;5054390;28;19913;-86
2022/06/06 00:40:52;;;;;;;;;;;17.20;85.00;;;;;;5066548;28;20343;-86
2022/06/06 00:43:18;;;;;;;;;;;17.10;84.70;;;;;;5052112;28;19924;-86
2022/06/06 00:45:45;;;;;;;;;;;17.10;84.20;;;;;;5070514;28;20004;-87
2022/06/06 00:48:10;;;;;;;;;;;17.10;84.20;;;;;;5072124;28;19916;-86
2022/06/06 00:50:36;;;;;;;;;;;17.10;84.40;;;;;;5055080;28;19916;-87
2022/06/06 00:53:02;;;;;;;;;;;17.00;84.60;;;;;;5058291;28;19912;-87
2022/06/06 00:55:31;;;;;;;;;;;17.00;84.10;;;;;;5055203;28;20375;-87
2022/06/06 00:57:58;;;;;;;;;;;16.90;84.00;;;;;;5055787;28;19938;-88
2022/06/06 01:00:25;;;;;;;;;;;16.90;84.30;;;;;;5092159;28;20354;-87
2022/06/06 01:02:53;;;;;;;;;;;16.90;84.30;;;;;;5075267;28;19962;-88
2022/06/06 01:05:19;;;;;;;;;;;16.90;84.40;;;;;;5061263;28;19916;-87
2022/06/06 01:07:45;;;;;;;;;;;16.80;84.10;;;;;;5052993;28;19909;-88
2022/06/06 01:10:10;;;;;;;;;;;16.80;83.50;;;;;;5051974;28;19920;-88
2022/06/06 01:12:38;;;;;;;;;;;16.70;83.40;;;;;;5062963;28;19909;-86
2022/06/06 01:15:07;;;;;;;;;;;16.70;83.00;;;;;;5058152;28;19962;-87
2022/06/06 01:17:39;;;;;;;;;;;16.60;83.20;;;;;;5054938;28;19915;-87
2022/06/06 01:20:14;;;;;;;;;;;16.60;83.60;;;;;;5071037;28;19926;-87
2022/06/06 01:22:58;;;;;;;;;;;16.60;83.80;;;;;;5055236;28;19988;-88
2022/06/06 01:25:47;;;;;;;;;;;16.60;83.30;;;;;;5054193;28;19982;-86
2022/06/06 01:28:20;;;;;;;;;;;16.60;83.50;;;;;;5072828;28;19919;-89
2022/06/06 01:30:50;;;;;;;;;;;16.50;83.20;;;;;;5071827;28;19952;-89
2022/06/06 01:33:16;;;;;;;;;;;16.50;83.30;;;;;;5077832;28;19919;-89
2022/06/06 01:35:44;;;;;;;;;;;16.50;83.10;;;;;;5057507;28;19951;-88
2022/06/06 01:38:10;;;;;;;;;;;16.50;83.40;;;;;;5055008;28;19909;-88
2022/06/06 01:40:55;;;;;;;;;;;16.40;83.40;;;;;;5070863;28;19912;-87
2022/06/06 01:43:25;;;;;;;;;;;16.40;83.30;;;;;;5054790;28;19916;-87
2022/06/06 01:45:52;;;;;;;;;;;16.50;82.90;;;;;;5053859;28;19929;-88
2022/06/06 01:48:20;;;;;;;;;;;16.50;83.00;;;;;;5072298;28;19908;-88
2022/06/06 01:50:46;;;;;;;;;;;16.50;83.30;;;;;;5071057;28;19916;-88
2022/06/06 01:53:16;;;;;;;;;;;16.40;83.70;;;;;;5072274;28;19908;-89
2022/06/06 01:55:43;;;;;;;;;;;16.40;83.40;;;;;;5053978;28;19931;-86
2022/06/06 01:58:13;;;;;;;;;;;16.40;83.70;;;;;;5043499;28;19991;-87
2022/06/06 02:00:39;;;;;;;;;;;16.40;83.80;;;;;;5033149;28;20005;-87
2022/06/06 02:03:05;;;;;;;;;;;16.50;84.30;;;;;;5041062;28;19909;-87
2022/06/06 02:05:31;;;;;;;;;;;16.40;84.50;;;;;;5056553;28;20310;-87
2022/06/06 02:07:57;;;;;;;;;;;16.50;85.10;;;;;;5058884;28;20000;-88
2022/06/06 02:10:23;;;;;;;;;;;16.50;85.40;;;;;;5062305;28;19908;-87
2022/06/06 02:12:49;;;;;;;;;;;16.40;85.70;;;;;;5073851;28;20011;-87
2022/06/06 02:15:16;;;;;;;;;;;16.20;86.20;;;;;;5073092;28;19943;-87
2022/06/06 02:17:42;;;;;;;;;;;16.20;86.70;;;;;;5073345;28;19965;-86
2022/06/06 02:20:08;;;;;;;;;;;16.20;86.60;;;;;;5072913;28;19912;-87
2022/06/06 02:22:35;;;;;;;;;;;16.20;87.00;;;;;;5076106;28;19912;-87
2022/06/06 02:25:02;;;;;;;;;;;16.10;86.90;;;;;;5052796;28;19912;-88
2022/06/06 02:27:28;;;;;;;;;;;16.10;87.50;;;;;;5053302;28;19909;-86
2022/06/06 02:29:53;;;;;;;;;;;16.00;87.50;;;;;;5047757;28;20379;-87
2022/06/06 02:32:19;;;;;;;;;;;16.00;87.70;;;;;;5033393;28;20323;-87
2022/06/06 02:34:44;;;;;;;;;;;16.00;87.50;;;;;;5052896;28;20232;-86
2022/06/06 02:37:10;;;;;;;;;;;15.90;87.70;;;;;;5052346;28;20384;-86
2022/06/06 02:39:35;;;;;;;;;;;16.00;88.00;;;;;;5067504;28;20342;-87
2022/06/06 02:42:00;;;;;;;;;;;15.90;88.40;;;;;;5071759;28;20101;-87
2022/06/06 02:44:26;;;;;;;;;;;15.80;88.60;;;;;;5080152;28;20332;-88
2022/06/06 02:46:52;;;;;;;;;;;15.80;88.70;;;;;;5070087;28;19917;-88
2022/06/06 02:49:18;;;;;;;;;;;15.90;88.60;;;;;;5069929;28;19916;-88
2022/06/06 02:51:43;;;;;;;;;;;15.80;88.80;;;;;;5071560;28;20000;-88
2022/06/06 02:54:09;;;;;;;;;;;15.90;88.70;;;;;;5033428;28;19948;-86
2022/06/06 02:56:35;;;;;;;;;;;15.80;88.80;;;;;;5047269;28;20027;-89
2022/06/06 02:59:03;;;;;;;;;;;15.70;88.90;;;;;;5053309;28;19912;-88
2022/06/06 03:01:29;;;;;;;;;;;15.80;89.00;;;;;;5072175;28;19972;-88
2022/06/06 03:03:54;;;;;;;;;;;15.70;89.20;;;;;;5055653;28;19935;-88
2022/06/06 03:06:23;;;;;;;;;;;15.80;89.30;;;;;;5055758;28;20058;-88
2022/06/06 03:09:04;;;;;;;;;;;15.80;89.40;;;;;;5054217;28;20433;-88
2022/06/06 03:11:55;;;;;;;;;;;15.80;89.10;;;;;;5054172;28;19909;-88
2022/06/06 03:14:32;;;;;;;;;;;15.80;89.00;;;;;;5055751;28;20368;-88
2022/06/06 03:22:51;;;;;;;;;;;16.00;88.50;;;;;;5074519;28;19950;-89
2022/06/06 03:25:37;;;;;;;;;;;15.80;88.80;;;;;;5054161;28;19916;-88
2022/06/06 03:28:11;;;;;;;;;;;15.90;88.90;;;;;;5045578;28;19966;-88
2022/06/06 03:30:55;;;;;;;;;;;15.80;88.90;;;;;;5040938;28;19930;-88
2022/06/06 03:33:27;;;;;;;;;;;15.90;89.20;;;;;;5071948;28;20061;-88
2022/06/06 03:35:59;;;;;;;;;;;16.00;88.90;;;;;;5054169;28;20003;-88
2022/06/06 03:38:40;;;;;;;;;;;16.00;89.00;;;;;;5054328;28;20298;-86
2022/06/06 03:41:06;;;;;;;;;;;16.00;88.40;;;;;;5049763;28;20007;-88
2022/06/06 03:43:41;;;;;;;;;;;16.10;88.40;;;;;;5052414;28;19997;-88
2022/06/06 03:46:10;;;;;;;;;;;16.00;88.50;;;;;;5035533;28;19919;-88
2022/06/06 03:48:50;;;;;;;;;;;16.10;88.30;;;;;;5053358;28;19909;-88
2022/06/06 03:51:25;;;;;;;;;;;16.10;88.30;;;;;;5034950;28;19944;-88
2022/06/06 03:54:09;;;;;;;;;;;16.00;88.50;;;;;;5035157;28;20232;-88
2022/06/06 03:56:47;;;;;;;;;;;16.00;88.50;;;;;;5047955;28;19920;-88
2022/06/06 03:59:13;;;;;;;;;;;16.00;88.50;;;;;;5057028;28;19908;-88
2022/06/06 04:01:40;;;;;;;;;;;16.00;88.70;;;;;;5058359;28;19909;-88
2022/06/06 04:04:05;;;;;;;;;;;16.00;88.80;;;;;;5070125;28;19955;-88
2022/06/06 04:06:31;;;;;;;;;;;16.10;88.50;;;;;;5063220;28;20490;-89
2022/06/06 04:08:57;;;;;;;;;;;16.10;88.50;;;;;;5056443;28;19908;-88
2022/06/06 04:11:22;;;;;;;;;;;16.10;88.40;;;;;;5075343;28;20355;-87
2022/06/06 04:14:07;;;;;;;;;;;16.10;88.50;;;;;;5073485;28;20196;-88
2022/06/06 04:17:01;;;;;;;;;;;16.10;88.40;;;;;;5057864;28;19958;-88
2022/06/06 04:19:45;;;;;;;;;;;16.10;88.50;;;;;;5040262;28;19954;-88
2022/06/06 04:22:16;;;;;;;;;;;16.10;88.40;;;;;;5056371;28;19936;-91
2022/06/06 04:24:41;;;;;;;;;;;16.10;88.50;;;;;;5037669;28;19913;-88
2022/06/06 04:27:24;;;;;;;;;;;16.10;88.30;;;;;;5042864;28;19913;-87
2022/06/06 04:30:07;;;;;;;;;;;16.10;88.40;;;;;;5036905;28;19924;-88
2022/06/06 04:32:35;;;;;;;;;;;16.10;88.50;;;;;;5062710;28;20259;-88
2022/06/06 04:35:07;;;;;;;;;;;16.00;88.40;;;;;;5056503;28;19912;-88
2022/06/06 04:37:33;;;;;;;;;;;16.10;88.40;;;;;;5074178;28;20327;-88
2022/06/06 04:40:01;;;;;;;;;;;16.20;87.80;;;;;;5055628;28;20011;-88
2022/06/06 04:42:35;;;;;;;;;;;16.20;87.50;;;;;;5057001;28;19909;-88
2022/06/06 04:45:04;;;;;;;;;;;16.30;87.00;;;;;;5056496;28;19924;-88
2022/06/06 04:47:37;;;;;;;;;;;16.30;86.70;;;;;;5057025;28;19908;-88
2022/06/06 04:50:04;;;;;;;;;;;16.40;86.40;;;;;;5088520;28;19908;-88
2022/06/06 04:52:32;;;;;;;;;;;16.30;86.00;;;;;;5068336;28;19909;-88
2022/06/06 04:54:59;;;;;;;;;;;16.30;86.00;;;;;;5064580;28;19968;-89
2022/06/06 04:57:25;;;;;;;;;;;16.20;85.90;;;;;;5058720;28;19916;-87
2022/06/06 04:59:51;;;;;;;;;;;16.20;86.20;;;;;;5057669;28;20581;-89
2022/06/06 05:02:16;;;;;;;;;;;16.10;86.10;;;;;;5075704;28;19912;-88
2022/06/06 05:04:45;;;;;;;;;;;16.20;86.00;;;;;;5060034;28;19913;-89
2022/06/06 05:07:16;;;;;;;;;;;16.30;85.60;;;;;;5070527;28;20122;-91
2022/06/06 05:09:50;;;;;;;;;;;16.40;85.50;;;;;;5055660;28;19984;-88
2022/06/06 05:12:32;;;;;;;;;;;16.50;84.90;;;;;;5057064;28;19909;-88
2022/06/06 05:15:07;;;;;;;;;;;16.50;84.70;;;;;;5056068;28;19919;-88
2022/06/06 05:17:48;;;;;;;;;;;16.50;84.40;;;;;;5074738;28;19927;-89
2022/06/06 05:20:34;;;;;;;;;;;16.50;83.90;;;;;;5070952;28;19912;-89
2022/06/06 05:23:14;;;;;;;;;;;16.50;83.80;;;;;;5056705;28;19909;-88
2022/06/06 05:25:45;;;;;;;;;;;16.40;84.30;;;;;;5074630;28;19917;-88
2022/06/06 05:28:29;;;;;;;;;;;16.30;84.30;;;;;;5056201;28;19958;-90
2022/06/06 05:31:13;;;;;;;;;;;16.40;84.00;;;;;;5057220;28;19915;-88
2022/06/06 05:33:43;;;;;;;;;;;16.60;83.50;;;;;;5062378;28;19913;-89
2022/06/06 05:36:20;;;;;;;;;;;16.60;83.10;;;;;;5035565;28;20344;-89
2022/06/06 05:38:46;;;;;;;;;;;16.50;82.90;;;;;;5052968;28;19909;-89
2022/06/06 05:41:30;;;;;;;;;;;16.50;83.10;;;;;;5052375;28;19916;-89
2022/06/06 05:43:56;;;;;;;;;;;16.50;82.10;;;;;;5055077;28;20393;-88
2022/06/06 05:46:30;;;;;;;;;;;16.50;81.70;;;;;;5051872;28;20003;-88
2022/06/06 05:49:05;;;;;;;;;;;16.60;81.60;;;;;;5053968;28;19951;-88
2022/06/06 05:51:34;;;;;;;;;;;16.50;80.70;;;;;;5056129;28;19921;-89
2022/06/06 05:54:21;;;;;;;;;;;16.50;80.20;;;;;;5056005;28;20002;-88
2022/06/06 05:57:10;;;;;;;;;;;16.50;80.00;;;;;;5073118;28;19909;-88
2022/06/06 05:59:47;;;;;;;;;;;16.50;79.90;;;;;;5044716;28;19908;-89
2022/06/06 06:02:19;;;;;;;;;;;16.40;80.20;;;;;;5049937;28;20294;-89
2022/06/06 06:05:03;;;;;;;;;;;16.30;79.80;;;;;;5055314;28;19970;-88
2022/06/06 06:07:34;;;;;;;;;;;16.50;80.00;;;;;;5056322;28;20003;-89
2022/06/06 06:10:11;;;;;;;;;;;16.60;79.30;;;;;;5054033;28;19920;-88
2022/06/06 06:12:39;;;;;;;;;;;16.70;78.70;;;;;;5038049;28;19935;-88
2022/06/06 06:15:26;;;;;;;;;;;16.60;79.10;;;;;;5054788;28;19914;-87
2022/06/06 06:17:53;;;;;;;;;;;16.60;79.70;;;;;;5054702;28;19920;-88
2022/06/06 06:20:20;;;;;;;;;;;16.80;80.40;;;;;;5052906;28;19913;-87
2022/06/06 06:22:47;;;;;;;;;;;17.00;79.40;;;;;;5053750;28;19916;-89
2022/06/06 06:25:14;;;;;;;;;;;17.10;79.70;;;;;;5054432;28;19908;-88
2022/06/06 06:27:41;;;;;;;;;;;17.10;78.20;;;;;;5055144;28;19912;-88
2022/06/06 06:30:08;;;;;;;;;;;17.10;77.90;;;;;;5055298;28;20228;-88
2022/06/06 06:32:53;;;;;;;;;;;17.20;78.50;;;;;;5054365;28;20006;-88
2022/06/06 06:35:43;;;;;;;;;;;17.10;77.50;;;;;;5053588;28;20046;-88
2022/06/06 06:41:28;;;;;;;;;;;;;;;;;;;;;
2022/06/06 06:44:32;;;;;;;;;;;17.50;75.60;;;;;;5053038;28;19915;-88
2022/06/06 06:47:11;;;;;;;;;;;17.30;74.00;;;;;;5026116;28;19927;-88
2022/06/06 06:50:08;;;;;;;;;;;17.30;73.30;;;;;;5053909;28;19912;-89
2022/06/06 06:59:40;;;;;;;;;;;17.10;73.60;;;;;;5069676;28;19923;-88
2022/06/06 07:08:56;;;;;;;;;;;17.30;72.00;;;;;;4983974;28;20254;-88
2022/06/06 07:11:50;;;;;;;;;;;17.40;71.70;;;;;;5004229;28;19913;-88
2022/06/06 07:14:50;;;;;;;;;;;17.50;71.50;;;;;;5044567;28;20361;-89
2022/06/06 07:20:25;;;;;;;;;;;17.60;70.70;;;;;;5021384;28;19917;-91
2022/06/06 07:26:15;;;;;;;;;;;17.60;71.00;;;;;;5060541;28;19922;-88
2022/06/06 07:28:47;;;;;;;;;;;17.60;70.90;;;;;;5052638;28;19913;-87
2022/06/06 07:31:25;;;;;;;;;;;17.80;70.20;;;;;;5052405;28;20394;-87
2022/06/06 07:34:11;;;;;;;;;;;18.00;69.40;;;;;;5063091;28;20441;-87
2022/06/06 07:37:01;;;;;;;;;;;18.10;68.00;;;;;;5040009;28;19912;-87
2022/06/06 07:39:43;;;;;;;;;;;18.10;67.30;;;;;;5050345;28;19923;-86
2022/06/06 07:42:51;;;;;;;;;;;;;;;;;;;;;
2022/06/06 07:48:49;;;;;;;;;;;17.50;68.00;;;;;;5025520;28;20057;-88
2022/06/06 07:51:43;;;;;;;;;;;17.50;69.50;;;;;;5018509;28;19929;-89
2022/06/06 07:54:33;;;;;;;;;;;17.50;69.90;;;;;;5031805;28;20351;-88
2022/06/06 07:57:15;;;;;;;;;;;17.60;70.00;;;;;;5050888;28;19990;-88
2022/06/06 08:00:16;;;;;;;;;;;;;;;;;;;;;
2022/06/06 08:03:12;;;;;;;;;;;;;;;;;;;;;
2022/06/06 08:05:51;;;;;;;;;;;17.90;68.50;;;;;;5051092;28;19912;-86
2022/06/06 08:08:35;;;;;;;;;;;18.10;66.60;;;;;;5037384;28;20344;-87
2022/06/06 08:11:23;;;;;;;;;;;18.10;64.90;;;;;;5051363;28;20003;-87
2022/06/06 08:14:09;;;;;;;;;;;18.20;64.80;;;;;;5052757;28;19909;-86
2022/06/06 08:19:53;;;;;;;;;;;18.30;64.70;;;;;;5038787;28;19912;-87
2022/06/06 08:22:22;;;;;;;;;;;18.30;65.20;;;;;;5049812;28;19962;-87
2022/06/06 08:24:51;;;;;;;;;;;18.30;64.00;;;;;;5050861;28;20240;-89
2022/06/06 08:27:24;;;;;;;;;;;18.20;63.70;;;;;;5033672;28;20355;-87
2022/06/06 08:30:06;;;;;;;;;;;18.10;62.40;;;;;;5065663;28;19927;-88
2022/06/06 08:32:49;;;;;;;;;;;18.10;63.10;;;;;;5038959;28;19917;-86
2022/06/06 08:35:21;;;;;;;;;;;18.30;63.50;;;;;;5069891;28;19962;-88
2022/06/06 08:37:53;;;;;;;;;;;18.40;63.20;;;;;;5052893;28;20389;-88
2022/06/06 08:40:27;;;;;;;;;;;18.50;63.20;;;;;;5053970;28;19983;-87
2022/06/06 08:42:59;;;;;;;;;;;18.50;63.70;;;;;;5053594;28;20007;-86
2022/06/06 08:45:40;;;;;;;;;;;18.60;62.70;;;;;;5055638;28;20395;-87
2022/06/06 08:48:30;;;;;;;;;;;18.80;63.60;;;;;;5052801;28;19947;-86
2022/06/06 08:51:01;;;;;;;;;;;19.00;62.10;;;;;;5036613;28;19909;-86
2022/06/06 08:53:57;;;;;;;;;;;19.10;61.10;;;;;;5071777;28;20065;-87
2022/06/06 08:56:45;;;;;;;;;;;19.00;59.90;;;;;;5037769;28;19909;-86
2022/06/06 08:59:12;;;;;;;;;;;19.20;59.90;;;;;;5063103;28;19920;-87
2022/06/06 09:01:56;;;;;;;;;;;19.40;59.40;;;;;;5066163;28;19908;-88
2022/06/06 09:04:21;;;;;;;;;;;19.60;57.80;;;;;;5064791;28;19965;-86
2022/06/06 09:07:20;;;;;;;;;;;19.80;57.60;;;;;;5038929;28;19999;-86
2022/06/06 09:10:08;;;;;;;;;;;19.80;58.20;;;;;;5069105;28;19963;-86
2022/06/06 09:15:48;;;;;;;;;;;19.80;57.50;;;;;;5071149;28;20504;-85
2022/06/06 09:19:00;;;;;;;;;;;20.00;56.20;;;;;;5056368;28;19995;-87
2022/06/06 09:21:46;;;;;;;;;;;20.10;53.90;;;;;;5073770;28;19913;-87
2022/06/06 09:24:12;;;;;;;;;;;20.10;53.70;;;;;;5055292;28;19920;-85
2022/06/06 09:27:10;;;;;;;;;;;20.10;53.90;;;;;;5056519;28;19913;-86
2022/06/06 09:29:54;;;;;;;;;;;20.00;54.00;;;;;;5077440;28;19903;-86
2022/06/06 09:32:38;;;;;;;;;;;20.10;54.70;;;;;;5081486;28;19939;-86
2022/06/06 09:35:19;;;;;;;;;;;20.40;54.00;;;;;;5087391;28;20019;-85
2022/06/06 09:40:58;;;;;;;;;;;20.70;54.00;;;;;;5052573;28;19940;-85
2022/06/06 09:43:42;;;;;;;;;;;20.50;54.80;;;;;;5038343;28;19956;-86
2022/06/06 09:46:31;;;;;;;;;;;20.40;54.70;;;;;;5042568;28;20368;-87
2022/06/06 09:52:22;;;;;;;;;;;20.10;54.80;;;;;;5074875;28;19927;-86
2022/06/06 10:01:06;;;;;;;;;;;20.20;55.20;;;;;;5053076;28;20084;-87
2022/06/06 10:03:34;;;;;;;;;;;20.10;54.90;;;;;;5040442;28;19936;-87
2022/06/06 10:06:15;;;;;;;;;;;19.90;55.80;;;;;;5054281;28;20402;-86
2022/06/06 10:08:56;;;;;;;;;;;19.80;63.50;;;;;;5043487;28;19912;-86
2022/06/06 10:11:24;;;;;;;;;;;19.60;63.00;;;;;;5058077;28;20020;-87
2022/06/06 10:14:00;;;;;;;;;;;19.40;66.60;;;;;;5051863;28;19913;-86
2022/06/06 10:16:41;;;;;;;;;;;19.30;66.30;;;;;;5056359;28;19923;-86
2022/06/06 10:19:22;;;;;;;;;;;19.10;68.20;;;;;;5070578;28;20010;-86
2022/06/06 10:21:58;;;;;;;;;;;19.00;69.90;;;;;;5059082;28;20407;-86
2022/06/06 10:24:42;;;;;;;;;;;19.00;68.30;;;;;;5053429;28;19913;-87
2022/06/06 10:27:25;;;;;;;;;;;18.80;68.80;;;;;;5092995;28;19966;-86
2022/06/06 10:30:12;;;;;;;;;;;18.90;71.90;;;;;;5084909;28;19913;-88
2022/06/06 10:32:53;;;;;;;;;;;19.20;70.40;;;;;;5037482;28;19913;-89
2022/06/06 10:35:32;;;;;;;;;;;19.30;66.90;;;;;;5034111;28;20394;-85
2022/06/06 10:38:16;;;;;;;;;;;19.60;63.40;;;;;;5052506;28;19938;-87
2022/06/06 10:41:01;;;;;;;;;;;19.60;63.20;;;;;;5080774;28;20062;-87
2022/06/06 10:43:28;;;;;;;;;;;19.70;60.80;;;;;;5050518;28;19932;-86
2022/06/06 10:45:58;;;;;;;;;;;19.80;60.60;;;;;;5035489;28;20035;-85
2022/06/06 10:48:32;;;;;;;;;;;20.00;61.30;;;;;;5033689;28;19916;-86
2022/06/06 10:51:37;;;;;;;;;;;20.10;58.30;;;;;;5033559;28;20394;-85
2022/06/06 10:54:02;;;;;;;;;;;20.10;57.70;;;;;;5065991;28;19917;-85
2022/06/06 10:56:28;;;;;;;;;;;20.10;56.80;;;;;;5056438;28;20293;-87
2022/06/06 10:59:05;;;;;;;;;;;20.10;56.60;;;;;;5053711;28;20057;-87
2022/06/06 11:01:50;;;;;;;;;;;20.30;56.70;;;;;;5052332;28;20464;-87
2022/06/06 11:04:24;;;;;;;;;;;20.30;55.90;;;;;;5048489;28;19913;-86
2022/06/06 11:06:56;;;;;;;;;;;20.40;55.00;;;;;;5072726;28;19960;-85
2022/06/06 11:09:21;;;;;;;;;;;20.60;54.30;;;;;;5053870;28;19923;-86
2022/06/06 11:12:05;;;;;;;;;;;20.60;55.20;;;;;;5053616;28;19908;-85
2022/06/06 11:14:35;;;;;;;;;;;20.60;54.10;;;;;;5071163;28;20436;-87
2022/06/06 11:17:14;;;;;;;;;;;20.50;54.70;;;;;;5070599;28;20004;-86
2022/06/06 11:19:43;;;;;;;;;;;20.60;55.00;;;;;;5070436;28;20390;-88
2022/06/06 11:22:20;;;;;;;;;;;20.70;55.70;;;;;;5053400;28;19971;-86
2022/06/06 11:25:03;;;;;;;;;;;20.60;54.00;;;;;;5052196;28;19934;-86
2022/06/06 11:27:32;;;;;;;;;;;20.50;54.70;;;;;;5049528;28;19913;-86
2022/06/06 11:30:03;;;;;;;;;;;20.50;54.20;;;;;;5032914;28;19908;-86
2022/06/06 11:32:47;;;;;;;;;;;20.50;55.20;;;;;;5073701;28;19983;-86
2022/06/06 11:35:30;;;;;;;;;;;20.50;55.20;;;;;;5075864;28;19912;-87
2022/06/06 11:38:20;;;;;;;;;;;20.60;54.40;;;;;;5075346;28;19916;-87
2022/06/06 11:41:04;;;;;;;;;;;20.70;53.00;;;;;;5042290;28;19913;-85
2022/06/06 11:43:41;;;;;;;;;;;20.50;53.60;;;;;;5051913;28;19916;-87
2022/06/06 11:46:07;;;;;;;;;;;20.10;53.40;;;;;;5062334;28;19921;-87
2022/06/06 11:48:48;;;;;;;;;;;19.90;54.60;;;;;;5056283;28;19920;-87
2022/06/06 11:51:32;;;;;;;;;;;19.60;54.40;;;;;;5048053;28;19921;-87
2022/06/06 11:54:20;;;;;;;;;;;19.50;55.10;;;;;;5040827;28;19913;-87
2022/06/06 11:56:59;;;;;;;;;;;19.50;55.00;;;;;;5037412;28;20371;-86
2022/06/06 11:59:37;;;;;;;;;;;19.30;55.80;;;;;;5032296;28;19916;-87
2022/06/06 12:02:16;;;;;;;;;;;19.20;56.70;;;;;;5037287;28;20279;-85
2022/06/06 12:04:45;;;;;;;;;;;19.00;55.30;;;;;;5045886;28;19916;-87
2022/06/06 12:07:32;;;;;;;;;;;19.10;56.00;;;;;;5048222;28;20004;-86
2022/06/06 12:10:09;;;;;;;;;;;19.20;55.60;;;;;;5051752;28;20418;-86
2022/06/06 12:12:53;;;;;;;;;;;19.50;55.90;;;;;;5052331;28;19912;-86
2022/06/06 12:15:29;;;;;;;;;;;19.70;55.20;;;;;;5051182;28;20279;-87
2022/06/06 12:18:15;;;;;;;;;;;19.80;53.80;;;;;;5071953;28;19909;-87
2022/06/06 12:20:50;;;;;;;;;;;20.00;52.50;;;;;;5075920;28;20036;-87
2022/06/06 12:23:17;;;;;;;;;;;20.00;53.80;;;;;;5073932;28;20367;-87
2022/06/06 12:26:08;;;;;;;;;;;19.80;54.40;;;;;;5072795;28;19996;-86
2022/06/06 12:28:41;;;;;;;;;;;19.70;55.20;;;;;;5072388;28;19969;-87
2022/06/06 12:31:23;;;;;;;;;;;19.50;56.80;;;;;;5073322;28;19912;-85
2022/06/06 12:33:52;;;;;;;;;;;19.20;60.00;;;;;;5036226;28;19944;-86
2022/06/06 12:36:25;;;;;;;;;;;19.30;59.70;;;;;;5039580;28;19918;-86
2022/06/06 12:38:50;;;;;;;;;;;19.30;57.90;;;;;;5055041;28;19966;-86
2022/06/06 12:41:34;;;;;;;;;;;19.20;57.30;;;;;;5055875;28;19912;-86
2022/06/06 12:44:04;;;;;;;;;;;19.30;57.80;;;;;;5056170;28;19916;-85
2022/06/06 12:46:33;;;;;;;;;;;19.30;56.70;;;;;;5073380;28;19922;-86
2022/06/06 12:49:07;;;;;;;;;;;19.40;56.50;;;;;;5055360;28;19916;-89
2022/06/06 12:51:44;;;;;;;;;;;19.50;56.70;;;;;;5073785;28;19921;-86
2022/06/06 12:54:22;;;;;;;;;;;19.60;55.70;;;;;;5074489;28;19912;-86
2022/06/06 12:56:48;;;;;;;;;;;19.90;56.10;;;;;;5074399;28;19935;-86
2022/06/06 12:59:33;;;;;;;;;;;19.90;55.40;;;;;;5056084;28;20363;-86
2022/06/06 13:02:05;;;;;;;;;;;20.00;55.60;;;;;;5056563;28;19909;-88
2022/06/06 13:04:43;;;;;;;;;;;20.10;54.00;;;;;;5073258;22;19933;-86
2022/06/06 13:07:18;;;;;;;;;;;20.20;54.80;;;;;;5037030;28;19917;-87
2022/06/06 13:10:02;;;;;;;;;;;20.20;54.70;;;;;;5054933;28;19936;-87
2022/06/06 13:12:43;;;;;;;;;;;20.40;53.50;;;;;;5051008;28;19983;-87
2022/06/06 13:15:11;;;;;;;;;;;20.40;53.60;;;;;;5048524;28;19920;-87
2022/06/06 13:17:55;;;;;;;;;;;20.50;52.90;;;;;;5055168;28;19985;-86
2022/06/06 13:20:21;;;;;;;;;;;20.50;52.80;;;;;;5077327;28;19915;-87
2022/06/06 13:22:59;;;;;;;;;;;20.50;53.00;;;;;;5054040;28;19912;-87
2022/06/06 13:25:31;;;;;;;;;;;20.90;53.40;;;;;;5056318;28;19928;-86
2022/06/06 13:28:01;;;;;;;;;;;21.00;52.10;;;;;;5092005;28;19984;-88
2022/06/06 13:30:26;;;;;;;;;;;21.10;52.30;;;;;;5075895;28;19957;-88
2022/06/06 13:33:11;;;;;;;;;;;21.10;52.50;;;;;;5092092;28;19912;-88
2022/06/06 13:35:55;;;;;;;;;;;21.10;52.00;;;;;;5081773;28;19954;-86
2022/06/06 13:38:23;;;;;;;;;;;21.00;50.40;;;;;;5071553;28;19908;-86
2022/06/06 13:41:03;;;;;;;;;;;21.10;52.30;;;;;;5053113;28;19916;-86
2022/06/06 13:43:38;;;;;;;;;;;21.10;52.30;;;;;;5068480;28;19916;-85
2022/06/06 13:46:26;;;;;;;;;;;21.10;50.60;;;;;;5062717;28;20025;-86
2022/06/06 13:49:01;;;;;;;;;;;21.00;50.90;;;;;;5058917;28;19920;-88
2022/06/06 13:52:03;;;;;;;;;;;21.00;52.50;;;;;;5054545;28;20401;-87
2022/06/06 13:54:30;;;;;;;;;;;20.90;52.80;;;;;;4972996;28;20534;-87
2022/06/06 13:57:03;;;;;;;;;;;21.00;51.50;;;;;;5038964;28;19954;-86
2022/06/06 13:59:41;;;;;;;;;;;21.10;52.20;;;;;;5054070;28;20263;-86
2022/06/06 14:02:20;;;;;;;;;;;21.10;52.00;;;;;;5054505;28;19915;-87
2022/06/06 14:05:01;;;;;;;;;;;21.10;52.20;;;;;;5054590;28;19916;-86
2022/06/06 14:07:40;;;;;;;;;;;21.20;51.60;;;;;;5054981;28;19924;-86
2022/06/06 14:10:10;;;;;;;;;;;21.40;51.40;;;;;;5052856;28;19908;-86
2022/06/06 14:12:36;;;;;;;;;;;21.60;50.30;;;;;;5061913;28;19908;-86
2022/06/06 14:15:05;;;;;;;;;;;21.60;50.30;;;;;;5062389;28;19920;-85
2022/06/06 14:17:32;;;;;;;;;;;21.50;50.40;;;;;;5035306;28;19923;-87
2022/06/06 14:20:05;;;;;;;;;;;21.60;51.50;;;;;;5034241;28;19919;-87
2022/06/06 14:22:35;;;;;;;;;;;21.70;49.00;;;;;;5067849;28;19916;-87
2022/06/06 14:25:03;;;;;;;;;;;21.70;48.90;;;;;;5068010;28;19908;-86
2022/06/06 14:27:29;;;;;;;;;;;21.90;49.00;;;;;;5074093;28;19929;-86
2022/06/06 14:29:58;;;;;;;;;;;21.80;48.80;;;;;;5073944;28;19970;-86
2022/06/06 14:32:30;;;;;;;;;;;21.80;46.60;;;;;;5060100;28;19917;-86
2022/06/06 14:34:57;;;;;;;;;;;21.80;47.80;;;;;;5053510;28;19920;-86
2022/06/06 14:37:26;;;;;;;;;;;21.80;47.20;;;;;;5072408;28;20299;-86
2022/06/06 14:39:53;;;;;;;;;;;21.80;47.20;;;;;;5049598;28;19916;-83
2022/06/06 14:42:23;;;;;;;;;;;21.80;46.60;;;;;;5067991;28;19931;-82
2022/06/06 14:45:28;;;;;;;;;;;21.80;43.80;;;;;;5047011;28;19967;-90
2022/06/06 14:47:56;;;;;;;;;;;21.80;44.40;;;;;;5070331;28;19965;-89
2022/06/06 14:53:24;;;;;;;;;;;22.00;45.20;;;;;;5065166;28;19985;-87
2022/06/06 14:55:53;;;;;;;;;;;22.00;44.70;;;;;;5048773;28;19985;-87
2022/06/06 14:58:24;;;;;;;;;;;22.00;45.40;;;;;;5070145;28;19912;-86
2022/06/06 15:00:58;;;;;;;;;;;22.10;45.30;;;;;;5049657;28;20024;-87
2022/06/06 15:03:51;;;;;;;;;;;22.10;45.50;;;;;;5053937;28;19932;-88
2022/06/06 15:06:33;;;;;;;;;;;22.20;45.70;;;;;;5063790;28;19948;-89
2022/06/06 15:09:20;;;;;;;;;;;22.30;45.20;;;;;;5068477;28;19909;-90
2022/06/06 15:11:45;;;;;;;;;;;22.20;45.50;;;;;;5065909;28;20402;-88
2022/06/06 15:14:17;;;;;;;;;;;22.10;45.40;;;;;;5074905;28;19916;-90
2022/06/06 15:16:43;;;;;;;;;;;22.10;44.60;;;;;;5051699;28;19966;-90
2022/06/06 15:19:16;;;;;;;;;;;22.10;45.70;;;;;;5054285;28;19917;-89
2022/06/06 15:21:42;;;;;;;;;;;22.30;45.40;;;;;;5055784;28;19946;-90
2022/06/06 15:24:13;;;;;;;;;;;22.40;44.80;;;;;;5055677;28;20030;-88
2022/06/06 15:26:41;;;;;;;;;;;22.40;46.00;;;;;;5046930;28;20208;-90
2022/06/06 15:29:17;;;;;;;;;;;22.30;46.10;;;;;;5058646;28;19923;-91
2022/06/06 15:31:44;;;;;;;;;;;22.30;46.40;;;;;;5053626;28;19916;-88
2022/06/06 15:34:10;;;;;;;;;;;22.40;45.00;;;;;;5054596;28;20011;-89
2022/06/06 15:36:49;;;;;;;;;;;22.30;45.30;;;;;;5050131;28;19909;-91
2022/06/06 15:39:21;;;;;;;;;;;22.30;45.50;;;;;;5047734;28;19952;-92
2022/06/06 15:42:13;;;;;;;;;;;22.20;45.60;;;;;;5052748;28;19923;-89
2022/06/06 15:45:07;;;;;;;;;;;22.10;45.70;;;;;;5052992;28;19916;-91
2022/06/06 15:47:39;;;;;;;;;;;22.10;46.80;;;;;;5055082;28;20397;-89
2022/06/06 15:50:37;;;;;;;;;;;22.10;45.70;;;;;;5053886;28;19909;-91
2022/06/06 15:53:06;;;;;;;;;;;22.20;46.10;;;;;;5017346;28;19913;-90
2022/06/06 15:55:35;;;;;;;;;;;22.40;46.70;;;;;;5060570;28;19920;-91
2022/06/06 15:58:22;;;;;;;;;;;22.60;45.60;;;;;;5055393;28;19915;-91
2022/06/06 16:01:07;;;;;;;;;;;22.50;45.30;;;;;;5048259;28;19917;-91
2022/06/06 16:03:39;;;;;;;;;;;22.10;45.80;;;;;;5052196;28;20355;-88